Time;durP1;ratioP1;P1;durP2;ratioP2;P2;SDS_P1;SDS_P2;PMS_P1;PMS_P2;Temp;Humidity;BMP_temperature;BMP_pressure;BME280_temperature;BME280_humidity;BME280_pressure;Samples;Min_cycle;Max_cycle;Signal;HPM_P1;HPM_P2
2021/06/05 00:00:55;;;;;;;;;;;;;;;23.93;53.57;101584.41;2095792;28;4013;-73
2021/06/05 00:01:56;;;;;;;;;;;;;;;23.94;53.73;101582.38;2096913;28;5410;-73
2021/06/05 00:02:58;;;;;;;;;;;;;;;23.93;53.68;101581.56;2096370;28;3860;-73
2021/06/05 00:04:00;;;;;;;;;;;;;;;23.94;53.63;101583.22;2095465;28;5176;-73
2021/06/05 00:05:01;;;;;;;;;;;;;;;23.95;53.66;101578.31;2096978;28;4005;-74
2021/06/05 00:06:03;;;;;;;;;;;;;;;23.95;53.77;101584.03;2095785;28;4148;-73
2021/06/05 00:07:04;;;;;;;;;;;;;;;23.94;53.63;101577.50;2094845;28;3987;-73
2021/06/05 00:08:05;;;;;;;;;;;;;;;23.94;53.66;101577.50;2096272;28;3948;-73
2021/06/05 00:09:06;;;;;;;;;;;;;;;23.95;53.70;101578.31;2096109;28;4303;-73
2021/06/05 00:10:07;;;;;;;;;;;;;;;23.94;53.72;101577.50;2095928;28;5046;-74
2021/06/05 00:11:09;;;;;;;;;;;;;;;23.94;53.70;101579.53;2096475;28;4080;-74
2021/06/05 00:12:10;;;;;;;;;;;;;;;23.94;53.73;101580.34;2096031;28;4064;-74
2021/06/05 00:13:11;;;;;;;;;;;;;;;23.95;53.71;101584.03;2095207;28;5366;-73
2021/06/05 00:14:13;;;;;;;;;;;;;;;23.94;53.72;101585.25;2097011;28;3979;-73
2021/06/05 00:15:14;;;;;;;;;;;;;;;23.95;53.82;101595.47;2095378;28;4030;-74
2021/06/05 00:16:16;;;;;;;;;;;;;;;23.94;53.72;101600.34;2095594;28;4013;-73
2021/06/05 00:17:17;;;;;;;;;;;;;;;23.94;53.79;101600.34;2095921;28;4047;-73
2021/06/05 00:18:19;;;;;;;;;;;;;;;23.95;53.78;101601.19;2092790;28;4002;-75
2021/06/05 00:19:20;;;;;;;;;;;;;;;23.94;53.78;101597.50;2095916;28;4129;-75
2021/06/05 00:20:21;;;;;;;;;;;;;;;23.95;54.06;101595.47;2096668;28;4091;-74
2021/06/05 00:21:22;;;;;;;;;;;;;;;23.96;53.85;101605.72;2092751;28;4025;-75
2021/06/05 00:22:23;;;;;;;;;;;;;;;23.95;53.89;101606.91;2096744;28;4006;-75
2021/06/05 00:23:25;;;;;;;;;;;;;;;23.96;53.87;101600.00;2095984;28;3999;-75
2021/06/05 00:24:26;;;;;;;;;;;;;;;23.96;53.81;101602.88;2095009;28;5189;-75
2021/06/05 00:25:27;;;;;;;;;;;;;;;23.95;53.84;101602.00;2094577;28;5118;-75
2021/06/05 00:26:28;;;;;;;;;;;;;;;23.95;53.81;101604.88;2096279;28;5067;-73
2021/06/05 00:27:29;;;;;;;;;;;;;;;23.95;53.72;101607.72;2095989;28;4024;-73
2021/06/05 00:28:31;;;;;;;;;;;;;;;23.95;53.80;101602.00;2093606;28;3998;-73
2021/06/05 00:29:32;;;;;;;;;;;;;;;23.95;53.87;101601.19;2095527;28;3808;-73
2021/06/05 00:30:33;;;;;;;;;;;;;;;23.96;53.84;101597.16;2095835;28;4012;-73
2021/06/05 00:31:34;;;;;;;;;;;;;;;23.95;53.81;101598.31;2095358;28;3994;-73
2021/06/05 00:32:36;;;;;;;;;;;;;;;23.96;53.80;101597.16;2095385;28;4070;-74
2021/06/05 00:33:37;;;;;;;;;;;;;;;23.95;53.88;101596.31;2095529;28;3979;-74
2021/06/05 00:34:38;;;;;;;;;;;;;;;23.96;53.79;101591.44;2096219;28;4183;-73
2021/06/05 00:35:39;;;;;;;;;;;;;;;23.96;53.88;101595.13;2095536;28;4058;-73
2021/06/05 00:36:40;;;;;;;;;;;;;;;23.96;53.89;101592.28;2094920;28;3961;-73
2021/06/05 00:37:42;;;;;;;;;;;;;;;23.97;53.87;101590.25;2095815;28;3922;-73
2021/06/05 00:38:43;;;;;;;;;;;;;;;23.97;53.92;101588.22;2095215;28;3787;-73
2021/06/05 00:39:44;;;;;;;;;;;;;;;23.97;53.91;101595.97;2096362;28;3905;-73
2021/06/05 00:40:45;;;;;;;;;;;;;;;23.96;53.81;101598.00;2096361;28;3978;-73
2021/06/05 00:41:46;;;;;;;;;;;;;;;23.96;53.92;101600.84;2097155;28;4991;-73
2021/06/05 00:42:48;;;;;;;;;;;;;;;23.97;53.90;101604.53;2097823;28;3940;-73
2021/06/05 00:43:49;;;;;;;;;;;;;;;23.98;54.12;101604.19;2096990;28;3840;-73
2021/06/05 00:44:50;;;;;;;;;;;;;;;23.97;54.15;101599.66;2095781;28;3851;-74
2021/06/05 00:45:51;;;;;;;;;;;;;;;23.98;54.05;101604.19;2097367;28;4078;-75
2021/06/05 00:46:53;;;;;;;;;;;;;;;23.98;53.97;101600.47;2097017;28;5186;-75
2021/06/05 00:47:54;;;;;;;;;;;;;;;23.98;54.08;101594.75;2095855;28;3859;-78
2021/06/05 00:48:55;;;;;;;;;;;;;;;23.98;54.03;101597.63;2096983;28;3939;-79
2021/06/05 00:49:57;;;;;;;;;;;;;;;23.98;54.01;101592.75;2097941;28;3871;-84
2021/06/05 00:50:58;;;;;;;;;;;;;;;23.98;54.13;101601.34;2097889;28;4006;-79
2021/06/05 00:52:01;;;;;;;;;;;;;;;23.98;54.04;101598.47;2097009;28;4216;-78
2021/06/05 00:53:02;;;;;;;;;;;;;;;23.98;54.12;101594.75;2097725;28;4006;-77
2021/06/05 00:54:03;;;;;;;;;;;;;;;23.98;54.15;101597.63;2096890;28;4110;-84
2021/06/05 00:55:04;;;;;;;;;;;;;;;23.98;54.27;101601.34;2095478;28;3923;-76
2021/06/05 00:56:05;;;;;;;;;;;;;;;23.99;54.20;101599.31;2097483;28;4057;-75
2021/06/05 00:57:07;;;;;;;;;;;;;;;23.97;54.20;101588.22;2097968;28;4014;-74
2021/06/05 00:58:08;;;;;;;;;;;;;;;23.99;54.20;101602.16;2097268;28;3993;-73
2021/06/05 00:59:09;;;;;;;;;;;;;;;23.99;54.10;101602.16;2096305;28;3909;-73
2021/06/05 01:00:10;;;;;;;;;;;;;;;23.98;54.22;101598.47;2098074;28;4042;-73
2021/06/05 01:01:12;;;;;;;;;;;;;;;23.98;54.21;101591.91;2096362;28;4021;-73
2021/06/05 01:02:13;;;;;;;;;;;;;;;23.98;54.25;101592.75;2098570;28;5357;-70
2021/06/05 01:03:14;;;;;;;;;;;;;;;23.98;54.22;101587.03;2097948;28;4087;-71
2021/06/05 01:04:15;;;;;;;;;;;;;;;23.98;54.10;101597.63;2095848;28;3854;-69
2021/06/05 01:05:16;;;;;;;;;;;;;;;23.99;54.18;101596.44;2098192;28;4018;-72
2021/06/05 01:06:18;;;;;;;;;;;;;;;23.98;54.20;101595.63;2087377;28;3863;-73
2021/06/05 01:07:20;;;;;;;;;;;;;;;23.99;54.10;101596.44;2086672;28;5151;-73
2021/06/05 01:08:21;;;;;;;;;;;;;;;23.98;54.09;101595.63;2097794;28;4095;-72
2021/06/05 01:09:23;;;;;;;;;;;;;;;23.99;54.12;101597.28;2097149;28;4032;-72
2021/06/05 01:10:24;;;;;;;;;;;;;;;23.98;54.17;101594.75;2093650;28;4027;-72
2021/06/05 01:11:25;;;;;;;;;;;;;;;23.98;54.07;101589.03;2096078;28;3820;-72
2021/06/05 01:12:27;;;;;;;;;;;;;;;23.98;54.09;101598.47;2095924;28;3882;-73
2021/06/05 01:13:28;;;;;;;;;;;;;;;23.99;54.12;101590.72;2095212;28;3959;-73
2021/06/05 01:14:30;;;;;;;;;;;;;;;23.99;54.04;101597.28;2096598;28;3849;-73
2021/06/05 01:15:31;;;;;;;;;;;;;;;23.98;54.00;101592.75;2096442;28;4931;-72
2021/06/05 01:16:32;;;;;;;;;;;;;;;23.98;54.04;101601.34;2097153;28;3824;-72
2021/06/05 01:17:34;;;;;;;;;;;;;;;23.99;53.96;101602.16;2095938;28;3995;-70
2021/06/05 01:18:35;;;;;;;;;;;;;;;23.99;53.98;101605.84;2095469;28;4012;-70
2021/06/05 01:19:37;;;;;;;;;;;;;;;23.98;54.00;101604.19;2090903;28;4197;-69
2021/06/05 01:20:38;;;;;;;;;;;;;;;23.98;53.96;101601.34;2096596;28;4059;-70
2021/06/05 01:21:39;;;;;;;;;;;;;;;23.98;53.93;101603.34;2097656;28;3784;-70
2021/06/05 01:22:40;;;;;;;;;;;;;;;23.99;53.96;101603.00;2096831;28;3864;-70
2021/06/05 01:23:42;;;;;;;;;;;;;;;23.99;53.88;101594.41;2093329;28;4018;-69
2021/06/05 01:24:44;;;;;;;;;;;;;;;23.99;53.88;101602.16;2082054;28;5143;-69
2021/06/05 01:25:45;;;;;;;;;;;;;;;23.99;53.86;101599.31;2077431;28;3979;-70
2021/06/05 01:26:46;;;;;;;;;;;;;;;23.98;53.99;101592.75;2086925;28;3936;-70
2021/06/05 01:27:48;;;;;;;;;;;;;;;23.99;53.83;101602.16;2086710;28;3989;-70
2021/06/05 01:28:49;;;;;;;;;;;;;;;23.98;53.96;101589.91;2085965;28;4049;-70
2021/06/05 01:29:50;;;;;;;;;;;;;;;23.98;53.91;101592.75;2087669;28;4013;-70
2021/06/05 01:30:51;;;;;;;;;;;;;;;23.99;53.93;101594.41;2086963;28;4038;-70
2021/06/05 01:31:53;;;;;;;;;;;;;;;23.99;53.87;101587.88;2086170;28;3862;-70
2021/06/05 01:32:54;;;;;;;;;;;;;;;23.99;53.92;101588.69;2089063;28;3893;-70
2021/06/05 01:33:56;;;;;;;;;;;;;;;23.99;53.87;101585.84;2088741;28;4048;-71
2021/06/05 01:34:57;;;;;;;;;;;;;;;23.99;53.87;101588.69;2088447;28;3918;-70
2021/06/05 01:35:58;;;;;;;;;;;;;;;23.99;53.92;101582.16;2088738;28;4002;-72
2021/06/05 01:36:59;;;;;;;;;;;;;;;23.99;53.84;101585.84;2087505;28;4120;-72
2021/06/05 01:38:02;;;;;;;;;;;;;;;23.99;53.84;101582.97;2088948;28;3998;-72
2021/06/05 01:39:03;;;;;;;;;;;;;;;24.00;53.79;101587.50;2087278;28;3873;-72
2021/06/05 01:40:05;;;;;;;;;;;;;;;24.00;53.83;101589.53;2086739;28;3991;-72
2021/06/05 01:41:06;;;;;;;;;;;;;;;24.00;53.80;101592.38;2088374;28;4072;-72
2021/06/05 01:42:07;;;;;;;;;;;;;;;23.99;53.86;101594.41;2087988;28;4001;-72
2021/06/05 01:43:08;;;;;;;;;;;;;;;23.99;53.80;101591.56;2088383;28;3835;-72
2021/06/05 01:44:09;;;;;;;;;;;;;;;24.00;53.82;101592.38;2089165;28;4085;-72
2021/06/05 01:45:11;;;;;;;;;;;;;;;24.00;53.88;101590.34;2087652;28;4039;-72
2021/06/05 01:46:12;;;;;;;;;;;;;;;24.00;53.90;101587.50;2087675;28;3831;-71
2021/06/05 01:47:14;;;;;;;;;;;;;;;24.00;53.91;101590.34;2086564;28;4155;-71
2021/06/05 01:48:15;;;;;;;;;;;;;;;24.00;53.89;101586.66;2087276;28;3844;-72
2021/06/05 01:49:17;;;;;;;;;;;;;;;23.99;53.91;101585.84;2088753;28;4005;-72
2021/06/05 01:50:18;;;;;;;;;;;;;;;23.98;53.92;101581.31;2087544;28;5085;-71
2021/06/05 01:51:19;;;;;;;;;;;;;;;24.00;53.79;101576.06;2089407;28;5185;-71
2021/06/05 01:52:23;;;;;;;;;;;;;;;24.00;53.88;101575.22;2088254;28;3857;-70
2021/06/05 01:53:24;;;;;;;;;;;;;;;23.98;53.95;101575.59;2089122;28;3873;-71
2021/06/05 01:54:26;;;;;;;;;;;;;;;23.98;53.91;101572.75;2089314;28;5103;-71
2021/06/05 01:55:27;;;;;;;;;;;;;;;23.99;53.78;101571.53;2087579;28;4136;-69
2021/06/05 01:56:28;;;;;;;;;;;;;;;23.99;53.82;101571.53;2088305;28;4082;-70
2021/06/05 01:57:29;;;;;;;;;;;;;;;23.99;53.72;101570.72;2087583;28;4009;-70
2021/06/05 01:58:30;;;;;;;;;;;;;;;23.99;53.76;101570.72;2088277;28;4040;-70
2021/06/05 01:59:32;;;;;;;;;;;;;;;23.99;53.80;101570.72;2089592;28;3985;-70
2021/06/05 02:00:33;;;;;;;;;;;;;;;23.99;53.81;101567.88;2087477;28;3862;-69
2021/06/05 02:01:34;;;;;;;;;;;;;;;23.99;53.81;101573.56;2088732;28;3813;-70
2021/06/05 02:02:35;;;;;;;;;;;;;;;23.98;53.64;101572.75;2088562;28;4009;-69
2021/06/05 02:03:36;;;;;;;;;;;;;;;23.99;53.81;101574.41;2089128;28;4032;-70
2021/06/05 02:04:38;;;;;;;;;;;;;;;23.99;53.87;101565.84;2088211;28;3999;-72
2021/06/05 02:05:39;;;;;;;;;;;;;;;23.98;53.80;101572.75;2088592;28;3972;-72
2021/06/05 02:06:40;;;;;;;;;;;;;;;23.99;53.71;101568.69;2089775;28;3797;-72
2021/06/05 02:07:41;;;;;;;;;;;;;;;23.99;53.77;101574.41;2087273;28;3900;-72
2021/06/05 02:08:43;;;;;;;;;;;;;;;24.00;53.74;101560.94;2089366;28;3741;-72
2021/06/05 02:09:44;;;;;;;;;;;;;;;24.00;53.80;101561.78;2086386;28;4836;-72
2021/06/05 02:10:45;;;;;;;;;;;;;;;24.00;53.80;101563.81;2088100;28;3814;-72
2021/06/05 02:11:46;;;;;;;;;;;;;;;23.99;53.71;101565.84;2089197;28;3949;-72
2021/06/05 02:12:47;;;;;;;;;;;;;;;24.00;53.74;101555.22;2088946;28;3918;-72
2021/06/05 02:13:49;;;;;;;;;;;;;;;23.99;53.70;101560.13;2086558;28;3970;-72
2021/06/05 02:14:51;;;;;;;;;;;;;;;23.99;53.77;101562.97;2089273;28;4045;-72
2021/06/05 02:15:52;;;;;;;;;;;;;;;23.99;53.75;101562.97;2088717;28;3856;-72
2021/06/05 02:16:53;;;;;;;;;;;;;;;23.99;53.77;101565.84;2087953;28;3847;-72
2021/06/05 02:17:54;;;;;;;;;;;;;;;23.98;53.67;101564.19;2088052;28;4001;-72
2021/06/05 02:18:55;;;;;;;;;;;;;;;23.98;53.72;101564.19;2088955;28;3995;-71
2021/06/05 02:19:57;;;;;;;;;;;;;;;23.99;53.76;101567.88;2087687;28;4043;-72
2021/06/05 02:20:58;;;;;;;;;;;;;;;23.99;53.70;101562.16;2087071;28;4016;-72
2021/06/05 02:21:59;;;;;;;;;;;;;;;23.98;53.71;101564.19;2087378;28;4020;-69
2021/06/05 02:23:00;;;;;;;;;;;;;;;23.99;53.71;101560.13;2087911;28;4033;-70
2021/06/05 02:24:01;;;;;;;;;;;;;;;23.99;53.68;101559.28;2088158;28;4028;-69
2021/06/05 02:25:03;;;;;;;;;;;;;;;24.00;53.69;101558.09;2091074;28;3882;-69
2021/06/05 02:26:04;;;;;;;;;;;;;;;23.99;53.70;101557.25;2095340;28;5356;-69
2021/06/05 02:27:05;;;;;;;;;;;;;;;23.98;53.75;101549.88;2095012;28;6317;-70
2021/06/05 02:28:06;;;;;;;;;;;;;;;23.99;53.62;101557.25;2093408;28;4088;-70
2021/06/05 02:29:08;;;;;;;;;;;;;;;23.99;53.61;101556.44;2094338;28;4069;-72
2021/06/05 02:30:09;;;;;;;;;;;;;;;23.99;53.71;101554.41;2095201;28;4011;-72
2021/06/05 02:31:10;;;;;;;;;;;;;;;24.00;53.64;101558.91;2095017;28;3850;-72
2021/06/05 02:32:11;;;;;;;;;;;;;;;24.00;53.67;101561.78;2095903;28;4047;-72
2021/06/05 02:33:12;;;;;;;;;;;;;;;24.00;53.73;101560.94;2096484;28;3877;-71
2021/06/05 02:34:14;;;;;;;;;;;;;;;23.99;53.66;101562.97;2095594;28;3876;-72
2021/06/05 02:35:15;;;;;;;;;;;;;;;23.99;53.79;101557.25;2095766;28;5085;-72
2021/06/05 02:36:16;;;;;;;;;;;;;;;23.99;53.64;101559.28;2085794;28;4111;-71
2021/06/05 02:37:18;;;;;;;;;;;;;;;23.99;53.76;101556.44;2087829;28;4014;-72
2021/06/05 02:38:19;;;;;;;;;;;;;;;23.98;53.64;101555.59;2097122;28;4032;-72
2021/06/05 02:39:20;;;;;;;;;;;;;;;23.99;53.63;101557.25;2096223;28;4111;-72
2021/06/05 02:40:21;;;;;;;;;;;;;;;23.99;53.75;101550.72;2097163;28;3993;-71
2021/06/05 02:41:23;;;;;;;;;;;;;;;23.97;53.70;101553.09;2096119;28;4094;-70
2021/06/05 02:42:24;;;;;;;;;;;;;;;23.99;53.70;101560.13;2096948;28;4031;-70
2021/06/05 02:43:25;;;;;;;;;;;;;;;23.99;53.72;101559.28;2094263;28;4101;-70
2021/06/05 02:44:26;;;;;;;;;;;;;;;23.99;53.78;101559.28;2096892;28;4071;-70
2021/06/05 02:45:27;;;;;;;;;;;;;;;23.99;53.75;101556.44;2095329;28;3910;-70
2021/06/05 02:46:28;;;;;;;;;;;;;;;23.98;53.63;101557.59;2095486;28;4015;-69
2021/06/05 02:47:30;;;;;;;;;;;;;;;23.99;53.61;101553.56;2095576;28;3872;-70
2021/06/05 02:48:31;;;;;;;;;;;;;;;23.98;53.62;101561.31;2097094;28;3875;-70
2021/06/05 02:49:33;;;;;;;;;;;;;;;23.97;53.62;101559.63;2096499;28;4035;-70
2021/06/05 02:50:34;;;;;;;;;;;;;;;23.98;53.66;101549.03;2096781;28;4023;-70
2021/06/05 02:51:35;;;;;;;;;;;;;;;23.98;53.60;101558.47;2097116;28;3860;-70
2021/06/05 02:52:36;;;;;;;;;;;;;;;23.98;53.63;101549.88;2095571;28;3838;-70
2021/06/05 02:53:37;;;;;;;;;;;;;;;23.98;53.71;101549.88;2096165;28;3954;-70
2021/06/05 02:54:39;;;;;;;;;;;;;;;23.98;53.62;101555.59;2095946;28;5180;-71
2021/06/05 02:55:41;;;;;;;;;;;;;;;23.99;53.59;101553.56;2097162;28;4072;-71
2021/06/05 02:56:42;;;;;;;;;;;;;;;23.98;53.62;101549.88;2096912;28;5023;-71
2021/06/05 02:57:43;;;;;;;;;;;;;;;23.99;53.63;101550.72;2094675;28;3968;-71
2021/06/05 02:58:53;;;;;;;;;;;;;;;23.97;53.76;101539.63;2096297;28;5195;-71
2021/06/05 02:59:54;;;;;;;;;;;;;;;23.98;53.59;101546.16;2097047;28;4013;-71
2021/06/05 03:00:56;;;;;;;;;;;;;;;23.99;53.58;101542.13;2094902;28;4104;-70
2021/06/05 03:01:57;;;;;;;;;;;;;;;23.96;53.59;101549.41;2096422;28;4313;-70
2021/06/05 03:02:58;;;;;;;;;;;;;;;23.98;53.53;101541.31;2095390;28;3900;-69
2021/06/05 03:04:01;;;;;;;;;;;;;;;23.98;53.55;101541.31;2095929;28;5305;-70
2021/06/05 03:05:02;;;;;;;;;;;;;;;23.98;53.53;101549.03;2095761;28;3994;-72
2021/06/05 03:06:03;;;;;;;;;;;;;;;23.98;53.59;101549.88;2096993;28;3860;-71
2021/06/05 03:07:04;;;;;;;;;;;;;;;23.98;53.53;101555.59;2094834;28;3995;-72
2021/06/05 03:08:06;;;;;;;;;;;;;;;23.98;53.52;101555.59;2095143;28;4096;-72
2021/06/05 03:09:07;;;;;;;;;;;;;;;23.98;53.55;101554.75;2096354;28;5272;-71
2021/06/05 03:10:08;;;;;;;;;;;;;;;23.98;53.61;101554.75;2095637;28;4022;-71
2021/06/05 03:11:09;;;;;;;;;;;;;;;23.98;53.41;101555.59;2095742;28;4041;-73
2021/06/05 03:12:10;;;;;;;;;;;;;;;23.99;53.52;101562.16;2092512;28;4108;-72
2021/06/05 03:13:12;;;;;;;;;;;;;;;23.97;53.59;101556.78;2095526;28;3882;-72
2021/06/05 03:14:13;;;;;;;;;;;;;;;23.98;53.53;101555.59;2094158;28;3868;-72
2021/06/05 03:15:14;;;;;;;;;;;;;;;23.98;53.52;101561.31;2094948;28;3947;-72
2021/06/05 03:16:15;;;;;;;;;;;;;;;23.98;53.46;101555.59;2096220;28;4023;-73
2021/06/05 03:17:17;;;;;;;;;;;;;;;23.98;53.55;101549.03;2094783;28;5283;-72
2021/06/05 03:18:18;;;;;;;;;;;;;;;23.98;53.46;101549.88;2096158;28;3876;-72
2021/06/05 03:19:19;;;;;;;;;;;;;;;23.98;53.52;101555.59;2095574;28;3988;-72
2021/06/05 03:20:20;;;;;;;;;;;;;;;23.97;53.47;101553.91;2096682;28;4112;-72
2021/06/05 03:21:22;;;;;;;;;;;;;;;23.98;53.56;101547.03;2096732;28;3798;-72
2021/06/05 03:22:23;;;;;;;;;;;;;;;23.98;53.56;101549.88;2094538;28;3861;-72
2021/06/05 03:23:24;;;;;;;;;;;;;;;23.98;53.52;101552.75;2095391;28;4018;-72
2021/06/05 03:24:25;;;;;;;;;;;;;;;23.98;53.50;101552.75;2095426;28;4087;-73
2021/06/05 03:25:26;;;;;;;;;;;;;;;23.98;53.44;101549.88;2095801;28;4098;-72
2021/06/05 03:26:28;;;;;;;;;;;;;;;23.98;53.47;101544.16;2096890;28;4011;-73
2021/06/05 03:27:29;;;;;;;;;;;;;;;23.98;53.49;101546.16;2095932;28;4024;-72
2021/06/05 03:28:30;;;;;;;;;;;;;;;23.97;53.52;101548.19;2095753;28;3889;-72
2021/06/05 03:29:31;;;;;;;;;;;;;;;23.98;53.48;101546.16;2095166;28;4017;-72
2021/06/05 03:30:32;;;;;;;;;;;;;;;23.99;53.52;101545.81;2096063;28;4094;-72
2021/06/05 03:31:34;;;;;;;;;;;;;;;23.98;53.50;101541.31;2096507;28;4009;-72
2021/06/05 03:32:35;;;;;;;;;;;;;;;23.98;53.45;101544.16;2094813;28;3973;-72
2021/06/05 03:33:36;;;;;;;;;;;;;;;23.98;53.55;101544.16;2095598;28;5302;-69
2021/06/05 03:34:37;;;;;;;;;;;;;;;23.99;53.50;101542.13;2096821;28;4011;-69
2021/06/05 03:35:39;;;;;;;;;;;;;;;23.98;53.46;101540.44;2096155;28;3939;-69
2021/06/05 03:36:40;;;;;;;;;;;;;;;23.98;53.55;101538.44;2096461;28;3940;-69
2021/06/05 03:37:41;;;;;;;;;;;;;;;23.98;53.46;101541.31;2094353;28;3839;-73
2021/06/05 03:38:44;;;;;;;;;;;;;;;23.99;53.49;101545.00;2096956;28;3846;-72
2021/06/05 03:39:45;;;;;;;;;;;;;;;23.98;53.43;101543.31;2096440;28;4053;-71
2021/06/05 03:40:46;;;;;;;;;;;;;;;23.98;53.46;101544.16;2096668;28;3836;-72
2021/06/05 03:41:47;;;;;;;;;;;;;;;23.98;53.50;101547.03;2097265;28;3994;-72
2021/06/05 03:42:48;;;;;;;;;;;;;;;23.98;53.53;101543.31;2095166;28;4480;-69
2021/06/05 03:43:50;;;;;;;;;;;;;;;23.98;53.39;101549.88;2096527;28;4048;-71
2021/06/05 03:44:55;;;;;;;;;;;;;;;23.98;53.33;101552.75;2097210;28;4036;-72
2021/06/05 03:45:56;;;;;;;;;;;;;;;23.99;53.46;101550.72;2097447;28;3999;-71
2021/06/05 03:46:58;;;;;;;;;;;;;;;23.97;53.46;101548.19;2096142;28;3863;-71
2021/06/05 03:48:00;;;;;;;;;;;;;;;23.97;53.45;101544.50;2097189;28;5238;-71
2021/06/05 03:49:01;;;;;;;;;;;;;;;23.98;53.44;101547.03;2096194;28;4079;-71
2021/06/05 03:50:02;;;;;;;;;;;;;;;23.97;53.45;101545.34;2096631;28;4063;-71
2021/06/05 03:51:04;;;;;;;;;;;;;;;23.97;53.37;101548.19;2097006;28;3987;-69
2021/06/05 03:52:05;;;;;;;;;;;;;;;23.98;53.41;101555.59;2096474;28;4084;-70
2021/06/05 03:53:06;;;;;;;;;;;;;;;23.97;53.65;101548.19;2095603;28;3876;-69
2021/06/05 03:54:07;;;;;;;;;;;;;;;23.97;53.37;101550.22;2096555;28;4031;-69
2021/06/05 03:55:09;;;;;;;;;;;;;;;23.97;53.44;101545.34;2096417;28;3900;-68
2021/06/05 03:56:10;;;;;;;;;;;;;;;23.97;53.35;101541.66;2096332;28;4132;-70
2021/06/05 03:57:11;;;;;;;;;;;;;;;23.97;53.38;101548.19;2095575;28;4021;-70
2021/06/05 03:58:12;;;;;;;;;;;;;;;23.97;53.46;101542.47;2095581;28;4076;-70
2021/06/05 03:59:14;;;;;;;;;;;;;;;23.97;53.43;101545.34;2096161;28;5336;-71
2021/06/05 04:00:15;;;;;;;;;;;;;;;23.97;53.38;101551.06;2095835;28;3911;-70
2021/06/05 04:01:16;;;;;;;;;;;;;;;23.97;53.33;101553.91;2096716;28;5141;-70
2021/06/05 04:02:18;;;;;;;;;;;;;;;23.98;53.41;101546.16;2096193;28;3930;-71
2021/06/05 04:03:19;;;;;;;;;;;;;;;23.99;53.86;101545.81;2096996;28;4001;-69
2021/06/05 04:04:23;;;;;;;;;;;;;;;23.99;53.51;101547.84;2095779;28;4091;-69
2021/06/05 04:05:24;;;;;;;;;;;;;;;23.99;53.55;101548.69;2096257;28;3863;-70
2021/06/05 04:06:25;;;;;;;;;;;;;;;23.98;53.48;101546.16;2096124;28;4006;-70
2021/06/05 04:07:27;;;;;;;;;;;;;;;23.98;53.41;101549.03;2094194;28;3869;-71
2021/06/05 04:08:28;;;;;;;;;;;;;;;23.97;53.49;101551.06;2094988;28;3891;-71
2021/06/05 04:09:29;;;;;;;;;;;;;;;23.98;53.46;101549.03;2096358;28;6272;-70
2021/06/05 04:10:30;;;;;;;;;;;;;;;23.97;53.56;101553.91;2096586;28;4025;-70
2021/06/05 04:11:33;;;;;;;;;;;;;;;23.97;53.52;101553.91;2096867;28;4001;-69
2021/06/05 04:12:34;;;;;;;;;;;;;;;23.97;53.37;101551.06;2094794;28;4013;-69
2021/06/05 04:13:36;;;;;;;;;;;;;;;23.97;53.42;101548.19;2096679;28;4197;-69
2021/06/05 04:14:37;;;;;;;;;;;;;;;23.97;53.41;101547.38;2097903;28;3798;-69
2021/06/05 04:15:38;;;;;;;;;;;;;;;23.97;53.37;101548.19;2097711;28;4002;-69
2021/06/05 04:16:39;;;;;;;;;;;;;;;23.97;53.43;101545.34;2097364;28;3997;-69
2021/06/05 04:17:41;;;;;;;;;;;;;;;23.96;53.42;101540.81;2096434;28;4015;-69
2021/06/05 04:18:42;;;;;;;;;;;;;;;23.96;53.47;101546.53;2098093;28;3982;-70
2021/06/05 04:19:43;;;;;;;;;;;;;;;23.97;53.52;101547.38;2096716;28;4000;-70
2021/06/05 04:20:45;;;;;;;;;;;;;;;23.96;53.45;101543.69;2098084;28;3986;-69
2021/06/05 04:21:46;;;;;;;;;;;;;;;23.97;53.44;101539.63;2098600;28;4014;-70
2021/06/05 04:22:47;;;;;;;;;;;;;;;23.97;53.41;101545.34;2097165;28;3842;-70
2021/06/05 04:23:48;;;;;;;;;;;;;;;23.97;53.44;101542.47;2097956;28;3957;-70
2021/06/05 04:24:49;;;;;;;;;;;;;;;23.97;53.47;101547.38;2097384;28;4548;-69
2021/06/05 04:25:51;;;;;;;;;;;;;;;23.97;53.46;101547.38;2097233;28;5166;-73
2021/06/05 04:26:52;;;;;;;;;;;;;;;23.97;53.41;101548.19;2097524;28;4190;-73
2021/06/05 04:27:53;;;;;;;;;;;;;;;23.98;53.39;101549.03;2096048;28;5334;-72
2021/06/05 04:28:54;;;;;;;;;;;;;;;23.97;53.44;101548.19;2097699;28;4063;-72
2021/06/05 04:29:59;;;;;;;;;;;;;;;23.97;53.52;101551.06;2096970;28;4036;-72
2021/06/05 04:31:01;;;;;;;;;;;;;;;23.98;53.47;101557.59;2097567;28;3849;-72
2021/06/05 04:32:02;;;;;;;;;;;;;;;23.97;53.43;101551.06;2097799;28;4002;-72
2021/06/05 04:33:03;;;;;;;;;;;;;;;23.97;53.39;101550.22;2098025;28;4183;-73
2021/06/05 04:34:04;;;;;;;;;;;;;;;23.98;53.33;101552.75;2097823;28;5333;-72
2021/06/05 04:35:05;;;;;;;;;;;;;;;23.97;53.38;101555.94;2095592;28;4300;-71
2021/06/05 04:36:08;;;;;;;;;;;;;;;23.97;53.39;101545.34;2097925;28;4159;-72
2021/06/05 04:37:09;;;;;;;;;;;;;;;23.97;53.42;101548.19;2096720;28;4001;-75
2021/06/05 04:38:10;;;;;;;;;;;;;;;23.97;53.28;101553.91;2097502;28;3911;-72
2021/06/05 04:39:11;;;;;;;;;;;;;;;23.97;53.35;101547.38;2094820;28;4005;-72
2021/06/05 04:40:12;;;;;;;;;;;;;;;23.97;53.30;101553.09;2096859;28;4015;-71
2021/06/05 04:41:14;;;;;;;;;;;;;;;23.97;53.37;101553.91;2096845;28;4192;-71
2021/06/05 04:42:15;;;;;;;;;;;;;;;23.97;53.36;101553.91;2097166;28;4014;-71
2021/06/05 04:43:17;;;;;;;;;;;;;;;23.96;53.28;101555.13;2097485;28;5249;-72
2021/06/05 04:44:18;;;;;;;;;;;;;;;23.97;53.34;101553.91;2096818;28;4105;-72
2021/06/05 04:45:19;;;;;;;;;;;;;;;23.97;53.35;101558.81;2096912;28;3847;-75
2021/06/05 04:46:22;;;;;;;;;;;;;;;23.97;53.33;101553.09;2095352;28;3843;-76
2021/06/05 04:47:23;;;;;;;;;;;;;;;23.97;53.35;101553.91;2097789;28;3799;-74
2021/06/05 04:48:25;;;;;;;;;;;;;;;23.99;53.46;101556.44;2096563;28;5038;-69
2021/06/05 04:49:26;;;;;;;;;;;;;;;23.98;53.40;101552.75;2096679;28;3823;-70
2021/06/05 04:50:27;;;;;;;;;;;;;;;23.98;53.33;101549.88;2095666;28;4084;-70
2021/06/05 04:51:30;;;;;;;;;;;;;;;23.97;53.28;101553.91;2097645;28;4161;-72
2021/06/05 04:52:31;;;;;;;;;;;;;;;23.97;53.29;101551.06;2096207;28;3826;-71
2021/06/05 04:53:32;;;;;;;;;;;;;;;23.97;53.32;101553.91;2096847;28;4008;-72
2021/06/05 04:54:33;;;;;;;;;;;;;;;23.97;53.26;101553.91;2096668;28;3844;-71
2021/06/05 04:55:35;;;;;;;;;;;;;;;23.98;53.32;101551.88;2097540;28;3838;-71
2021/06/05 04:56:36;;;;;;;;;;;;;;;23.98;53.34;101554.75;2096107;28;3940;-71
2021/06/05 04:57:37;;;;;;;;;;;;;;;23.97;53.34;101550.22;2097628;28;3875;-70
2021/06/05 04:58:38;;;;;;;;;;;;;;;23.98;53.28;101554.75;2096247;28;4001;-70
2021/06/05 04:59:39;;;;;;;;;;;;;;;23.97;53.35;101556.78;2097045;28;5286;-69
2021/06/05 05:00:41;;;;;;;;;;;;;;;23.99;53.30;101553.56;2095511;28;3996;-68
2021/06/05 05:01:42;;;;;;;;;;;;;;;23.98;53.25;101555.59;2096610;28;3996;-69
2021/06/05 05:02:43;;;;;;;;;;;;;;;23.98;53.22;101561.31;2096910;28;4176;-69
2021/06/05 05:03:45;;;;;;;;;;;;;;;23.97;53.28;101562.47;2098092;28;3814;-69
2021/06/05 05:04:46;;;;;;;;;;;;;;;23.98;53.31;101561.31;2096672;28;3848;-70
2021/06/05 05:05:47;;;;;;;;;;;;;;;23.98;53.27;101563.31;2097127;28;3973;-69
2021/06/05 05:06:48;;;;;;;;;;;;;;;23.98;53.20;101558.47;2096849;28;3822;-69
2021/06/05 05:07:49;;;;;;;;;;;;;;;23.97;53.26;101559.63;2096227;28;5056;-69
2021/06/05 05:08:51;;;;;;;;;;;;;;;23.98;53.26;101560.47;2097357;28;4031;-70
2021/06/05 05:09:52;;;;;;;;;;;;;;;23.98;53.24;101557.59;2094297;28;3995;-70
2021/06/05 05:10:53;;;;;;;;;;;;;;;23.98;53.24;101554.75;2094244;28;4048;-70
2021/06/05 05:11:54;;;;;;;;;;;;;;;23.98;53.27;101554.75;2098035;28;4114;-70
2021/06/05 05:12:56;;;;;;;;;;;;;;;23.97;53.22;101556.78;2096666;28;3990;-69
2021/06/05 05:13:57;;;;;;;;;;;;;;;23.97;53.28;101553.91;2097425;28;4151;-69
2021/06/05 05:14:59;;;;;;;;;;;;;;;23.97;53.28;101553.91;2096513;28;3845;-70
2021/06/05 05:16:00;;;;;;;;;;;;;;;23.97;53.20;101544.50;2097193;28;4019;-71
2021/06/05 05:17:01;;;;;;;;;;;;;;;23.98;53.27;101546.16;2096617;28;3868;-70
2021/06/05 05:18:03;;;;;;;;;;;;;;;23.96;53.21;101546.53;2096534;28;4252;-70
2021/06/05 05:19:04;;;;;;;;;;;;;;;23.96;53.20;101552.25;2095192;28;4000;-69
2021/06/05 05:20:05;;;;;;;;;;;;;;;23.98;53.23;101554.75;2097801;28;4016;-69